Latest Weather Observations for Dubbo

IDN60801

Issued at 7:35 pm EST Wednesday 23 July 2014 (issued every 30 minutes, with the page automatically refreshed every 10 minutes)

About weather observations | Map of weather stations | Latest weather observations for NSW | Other Formats
Station Details ID: 065070 Name: DUBBO AIRPORT AWS Lat: -32.22 Lon: 148.58 Height: 284.0 m
Data from the previous 72 hours. | See also: Recent months at Dubbo
Date/Time
EST
Temp
°C
App
Temp
°C
Dew
Point
Rel
Hum
%
Delta-T
°C
Wind Press
QNH
hPa
Press
MSL
hPa
Rain
since 9 am
mm
Dir
 
Spd
km/h
Gust
km/h
Spd
kts
Gust
kts
23/07:30pm 11.1 7.5 5.0 66 2.8 SE 13 15 7 8 1021.0 - 0.0
23/07:00pm 11.6 8.0 5.0 64 3.1 SE 13 17 7 9 1021.0 1021.4 0.0
23/06:30pm 11.5 8.0 5.4 66 2.9 SSE 13 15 7 8 1020.6 - 0.0
23/06:00pm 11.9 9.1 5.1 63 3.2 SE 9 11 5 6 1020.4 1020.7 0.0
23/05:30pm 11.9 8.7 4.9 62 3.3 SE 11 11 6 6 1020.2 - 0.0
23/05:00pm 13.3 10.1 5.0 57 3.9 ESE 11 13 6 7 1020.1 1020.4 0.0
23/04:30pm 15.2 12.5 5.7 53 4.6 E 9 11 5 6 1020.3 - 0.0
23/04:00pm 16.3 13.5 5.3 48 5.3 ESE 9 11 5 6 1020.3 1020.6 0.0
23/03:30pm 16.7 13.9 5.0 46 5.7 E 9 11 5 6 1020.2 - 0.0
23/03:00pm 16.7 13.8 4.4 44 5.9 ENE 9 13 5 7 1020.5 1020.8 0.0
23/02:30pm 17.0 13.8 5.0 45 5.8 E 11 19 6 10 1020.6 - 0.0
23/02:00pm 17.0 13.6 5.9 48 5.5 ENE 13 20 7 11 1020.5 1020.8 0.0
23/01:30pm 16.9 12.9 6.7 51 5.1 ENE 17 20 9 11 1020.9 - 0.0
23/01:00pm 16.3 13.1 7.0 54 4.7 ENE 13 22 7 12 1021.4 1021.8 0.0
23/12:30pm 16.1 12.3 7.6 57 4.3 E 17 26 9 14 1021.9 - 0.0
23/12:00pm 15.4 11.3 8.6 64 3.5 E 20 26 11 14 1022.5 1022.9 0.0
23/11:30am 14.6 10.6 8.3 66 3.2 E 19 24 10 13 1023.2 - 0.0
23/11:00am 13.8 9.8 8.2 69 2.8 E 19 26 10 14 1024.2 1024.6 0.0
23/10:30am 12.5 8.5 8.2 75 2.2 E 19 24 10 13 1024.8 - 0.0
23/10:00am 11.2 7.0 8.4 83 1.4 E 20 30 11 16 1025.1 1025.5 0.0
23/09:30am 9.0 5.9 7.1 88 0.9 SE 13 17 7 9 1025.2 - 0.0
23/09:00am 8.4 5.4 7.5 94 0.4 SE 13 19 7 10 1025.1 1025.5 0.0
23/08:30am 6.6 2.9 6.5 99 0.0 SE 15 19 8 10 1024.9 - 0.0
23/08:00am 5.3 1.4 5.3 100 0.0 SSE 15 17 8 9 1024.7 1025.1 0.0
23/07:30am 3.8 -0.4 3.8 100 0.0 SE 15 15 8 8 1024.5 - 0.0
23/07:00am 2.8 -1.6 2.8 100 0.0 SE 15 17 8 9 1024.3 1024.7 0.0
23/06:30am 3.1 -2.0 3.1 100 0.0 SSE 19 20 10 11 1023.6 - 0.0
23/06:00am 2.7 -2.1 2.7 100 0.0 SSE 17 19 9 10 1023.4 1023.7 0.0
23/05:30am 3.0 -1.3 3.0 100 0.0 SSE 15 17 8 9 1023.4 - 0.0
23/05:00am 3.1 -1.2 3.0 99 0.0 SE 15 15 8 8 1023.2 1023.6 0.0
23/04:30am 3.3 -0.3 3.2 99 0.0 SE 11 13 6 7 1023.0 - 0.0
23/04:00am 4.1 0.3 4.0 99 0.0 SSE 13 17 7 9 1022.5 1022.9 0.0
23/03:30am 4.2 0.8 4.1 99 0.0 SE 11 15 6 8 1022.6 - 0.0
23/03:00am 5.3 1.4 5.2 99 0.0 SSE 15 19 8 10 1022.6 1023.0 0.0
23/02:30am 4.9 0.8 4.6 98 0.1 SE 15 19 8 10 1022.6 - 0.0
23/02:00am 6.1 1.9 5.8 98 0.1 SSE 17 20 9 11 1022.9 1023.3 0.0
23/01:30am 6.1 1.5 5.8 98 0.1 SSE 19 20 10 11 1022.8 - 0.0
23/01:00am 6.1 1.5 5.8 98 0.1 SSE 19 20 10 11 1022.8 1023.2 0.0
23/12:30am 5.4 1.1 5.3 99 0.0 SSE 17 20 9 11 1023.0 - 0.0
23/12:00am 6.0 2.6 5.7 98 0.1 SSE 13 15 7 8 1023.4 1023.7 0.0
 
Date/Time
EST
Temp
°C
App
Temp
°C
Dew
Point
Rel
Hum
%
Delta-T
°C
Wind Press
QNH
hPa
Press
MSL
hPa
Rain
since 9 am
mm
Dir
 
Spd
km/h
Gust
km/h
Spd
kts
Gust
kts
22/11:30pm 6.2 3.6 6.1 99 0.0 S 9 11 5 6 1023.7 - 0.0
22/11:00pm 5.5 3.7 5.2 98 0.1 S 4 9 2 5 1023.7 1024.1 0.0
22/10:30pm 5.6 3.8 5.2 97 0.2 E 4 9 2 5 1023.7 - 0.0
22/10:00pm 5.0 1.6 4.0 93 0.4 ENE 11 13 6 7 1023.2 1023.6 0.0
22/09:30pm 7.7 4.0 6.2 90 0.7 SSE 15 17 8 9 1022.6 - 0.0
22/09:00pm 8.1 4.4 6.1 87 0.9 SSE 15 19 8 10 1022.6 1023.0 0.0
22/08:30pm 8.9 5.2 6.5 85 1.1 S 15 17 8 9 1022.8 - 0.0
22/08:00pm 8.3 5.1 6.8 90 0.7 S 13 15 7 8 1022.7 1023.1 0.0
22/07:30pm 8.3 5.0 6.3 87 0.9 SSE 13 15 7 8 1022.4 - 0.0
22/07:00pm 7.8 5.1 5.6 86 1.0 S 9 11 5 6 1022.6 1023.0 0.0
22/06:30pm 10.0 7.9 6.7 80 1.6 S 7 7 4 4 1022.6 - 0.0
22/06:00pm 11.3 9.3 7.0 75 2.1 S 7 9 4 5 1022.3 1022.7 0.0
22/05:30pm 11.9 9.3 6.2 68 2.7 SSE 9 11 5 6 1022.0 - 0.0
22/05:00pm 14.7 11.9 7.0 60 3.8 SSE 11 15 6 8 1021.7 1022.1 0.0
22/04:30pm 16.0 12.9 7.2 56 4.4 SSE 13 20 7 11 1021.6 - 0.0
22/04:00pm 16.4 12.9 7.1 54 4.7 SSE 15 20 8 11 1021.6 1022.0 0.0
22/03:30pm 16.8 13.3 7.2 53 4.9 S 15 22 8 12 1021.6 - 0.0
22/03:00pm 17.0 13.2 7.6 54 4.8 S 17 20 9 11 1021.6 1022.0 0.0
22/02:30pm 17.1 13.3 7.7 54 4.8 SSE 17 24 9 13 1021.6 - 0.0
22/02:00pm 16.4 12.7 6.5 52 4.9 SSE 15 22 8 12 1021.6 1022.0 0.0
22/01:30pm 16.7 13.7 9.4 62 3.9 S 15 24 8 13 1021.6 - 0.0
22/01:00pm 16.7 14.3 9.9 64 3.6 S 13 19 7 10 1021.9 1022.3 0.0
22/12:30pm 16.5 14.1 9.9 65 3.5 S 13 20 7 11 1022.5 - 0.0
22/12:00pm 15.2 12.9 9.1 67 3.2 SSE 11 17 6 9 1022.9 1023.3 0.0
22/11:30am 14.4 11.6 8.6 68 3.0 S 13 17 7 9 1023.5 - 0.0
22/11:00am 14.1 11.4 8.9 71 2.7 SSE 13 17 7 9 1023.8 1024.2 0.0
22/10:30am 13.2 10.0 8.5 73 2.4 SSE 15 20 8 11 1024.1 - 0.0
22/10:00am 12.0 8.4 8.3 78 1.8 SSE 17 20 9 11 1024.1 1024.5 0.0
22/09:30am 10.9 6.7 7.4 79 1.7 SSE 19 22 10 12 1024.1 - 0.0
22/09:00am 10.3 6.1 7.4 82 1.4 SSE 19 24 10 13 1023.9 1024.3 0.0
22/08:30am 9.7 6.2 7.0 83 1.3 SSE 15 19 8 10 1023.8 - 0.0
22/08:00am 8.7 5.2 7.2 90 0.7 SSE 15 20 8 11 1023.5 1023.8 0.0
22/07:30am 6.7 2.2 6.0 95 0.3 SSE 19 22 10 12 1023.1 - 0.0
22/07:00am 6.8 2.0 5.7 93 0.5 SSE 20 24 11 13 1023.0 1023.4 0.0
22/06:30am 7.2 2.1 6.1 93 0.5 SSE 22 26 12 14 1022.7 - 0.0
22/06:00am 7.5 2.9 6.4 93 0.5 SSE 20 24 11 13 1022.4 1022.8 0.0
22/05:30am 7.3 3.3 6.6 95 0.3 SSE 17 20 9 11 1022.3 - 0.0
22/05:00am 7.1 2.0 6.2 94 0.4 SE 22 26 12 14 1022.1 1022.5 0.0
22/04:30am 7.3 3.2 6.4 94 0.4 SSE 17 20 9 11 1022.2 - 0.0
22/04:00am 7.7 4.1 6.8 94 0.4 SSE 15 20 8 11 1022.1 1022.5 0.0
22/03:30am 7.2 4.3 6.5 95 0.3 SSE 11 17 6 9 1022.0 - 0.0
22/03:00am 7.0 3.6 6.1 94 0.4 SSE 13 17 7 9 1022.1 1022.5 0.0
22/02:30am 7.2 3.5 6.1 93 0.5 SSE 15 17 8 9 1022.0 - 0.0
22/02:00am 8.0 4.4 6.8 92 0.6 SSE 15 19 8 10 1022.1 1022.5 0.0
22/01:30am 7.8 3.9 6.9 94 0.4 SSE 17 20 9 11 1022.1 - 0.0
22/01:00am 7.7 4.0 6.5 92 0.6 SSE 15 17 8 9 1022.2 1022.6 0.0
22/12:30am 9.0 6.0 7.6 91 0.7 SSE 13 19 7 10 1022.4 - 0.0
22/12:00am 8.7 5.2 7.2 90 0.7 SSE 15 17 8 9 1022.5 1022.9 0.0
 
Date/Time
EST
Temp
°C
App
Temp
°C
Dew
Point
Rel
Hum
%
Delta-T
°C
Wind Press
QNH
hPa
Press
MSL
hPa
Rain
since 9 am
mm
Dir
 
Spd
km/h
Gust
km/h
Spd
kts
Gust
kts
21/11:30pm 9.2 5.7 7.3 88 0.9 SSE 15 19 8 10 1022.7 - 0.0
21/11:00pm 9.3 5.8 7.3 87 1.0 SSE 15 17 8 9 1022.8 1023.2 0.0
21/10:30pm 10.2 6.8 7.8 85 1.2 SSE 15 17 8 9 1022.9 - 0.0
21/10:00pm 10.2 6.5 8.0 86 1.1 S 17 19 9 10 1022.9 1023.3 0.0
21/09:30pm 10.6 7.7 8.2 85 1.2 S 13 17 7 9 1022.8 - 0.0
21/09:00pm 10.4 7.5 8.3 87 1.0 SSE 13 15 7 8 1022.8 1023.2 0.0
21/08:30pm 9.7 6.7 7.8 88 0.9 SSE 13 13 7 7 1022.8 - 0.0
21/08:00pm 9.7 6.6 7.3 85 1.2 SE 13 15 7 8 1022.6 1023.0 0.0
21/07:30pm 10.7 7.5 8.3 85 1.2 SE 15 20 8 11 1022.4 - 0.0
21/07:00pm 11.1 8.2 8.0 81 1.5 SSE 13 15 7 8 1022.3 1022.7 0.0
21/06:30pm 12.2 9.5 8.9 80 1.7 SSE 13 13 7 7 1022.3 - 0.0
21/06:00pm 12.2 9.8 8.7 79 1.8 S 11 11 6 6 1022.0 1022.4 0.0
21/05:30pm 12.7 10.2 8.4 75 2.2 SSE 11 13 6 7 1021.7 - 0.0
21/05:00pm 14.2 11.8 8.8 70 2.8 S 11 13 6 7 1021.8 1022.2 0.0
21/04:30pm 15.0 12.6 8.7 66 3.2 S 11 13 6 7 1021.8 - 0.0
21/04:00pm 15.7 12.9 8.7 63 3.6 S 13 17 7 9 1021.5 1021.9 0.0
21/03:30pm 15.8 13.7 8.3 61 3.9 SSE 9 13 5 7 1021.6 - 0.0
21/03:00pm 16.3 14.7 8.0 58 4.2 SSE 6 9 3 5 1021.6 1022.0 0.0
21/02:30pm 16.8 15.2 8.2 57 4.4 NNW 6 9 3 5 1021.6 - 0.0
21/02:00pm 16.3 14.1 8.0 58 4.2 ESE 9 15 5 8 1021.7 1022.1 0.0
21/01:30pm 16.3 14.5 9.3 63 3.7 ESE 9 17 5 9 1021.9 - 0.0
21/01:00pm 15.5 12.5 9.2 66 3.3 ESE 15 19 8 10 1022.3 1022.7 0.0
21/12:30pm 14.7 11.5 8.4 66 3.2 E 15 20 8 11 1022.8 - 0.0
21/12:00pm 14.8 10.8 8.3 65 3.3 E 19 24 10 13 1023.5 1023.8 0.0
21/11:30am 13.6 9.9 7.8 68 2.9 E 17 24 9 13 1024.1 - 0.0
21/11:00am 14.0 10.0 9.0 72 2.6 E 20 26 11 14 1024.3 1024.7 0.0
21/10:30am 13.1 8.7 9.0 76 2.1 E 22 32 12 17 1024.7 - 0.0
21/10:00am 11.0 6.4 8.2 83 1.4 E 22 30 12 16 1025.0 1025.4 0.0
21/09:30am 8.6 5.1 7.1 90 0.7 ESE 15 20 8 11 1025.2 - 0.0
21/09:00am 7.8 4.1 6.3 90 0.7 SE 15 20 8 11 1025.3 1025.7 0.0
21/08:30am 6.8 1.9 5.1 89 0.8 SSE 20 24 11 13 1025.3 - 0.0
21/08:00am 6.2 1.8 5.0 92 0.5 SSE 17 20 9 11 1025.1 1025.5 0.0
21/07:30am 5.0 -0.1 4.3 95 0.3 SSE 20 24 11 13 1024.9 - 0.0
21/07:00am 4.8 0.0 4.4 97 0.2 SSE 19 22 10 12 1024.8 1025.2 0.0
21/06:30am 4.6 -0.3 4.2 97 0.2 SSE 19 22 10 12 1024.6 - 0.0
21/06:00am 4.8 -0.2 4.4 97 0.2 SSE 20 26 11 14 1024.4 1024.8 0.0
21/05:30am 5.0 0.0 4.6 97 0.2 S 20 26 11 14 1024.4 - 0.0
21/05:00am 5.1 0.1 4.7 97 0.2 SSE 20 24 11 13 1024.2 1024.6 0.0
21/04:30am 5.2 0.5 5.1 99 0.0 SSE 19 22 10 12 1024.3 - 0.0
21/04:00am 5.0 0.6 4.9 99 0.0 SSE 17 20 9 11 1024.3 1024.7 0.0
21/03:30am 5.3 0.6 5.0 98 0.1 SSE 19 22 10 12 1024.3 - 0.0
21/03:00am 5.5 0.7 4.9 96 0.3 SSE 19 20 10 11 1024.4 1024.8 0.0
21/02:30am 5.7 0.8 5.0 95 0.3 SSE 20 24 11 13 1024.3 - 0.0
21/02:00am 6.0 1.3 5.1 94 0.4 SSE 19 24 10 13 1024.5 1024.9 0.0
21/01:30am 6.2 1.3 5.3 94 0.4 SSE 20 24 11 13 1024.7 - 0.0
21/01:00am 6.3 2.0 5.4 94 0.4 SSE 17 20 9 11 1024.7 1025.1 0.0
21/12:30am 6.4 1.7 5.2 92 0.5 SSE 19 22 10 12 1024.8 - 0.0
21/12:00am 7.1 2.3 5.4 89 0.8 S 20 28 11 15 1025.0 1025.4 0.0
 
Date/Time
EST
Temp
°C
App
Temp
°C
Dew
Point
Rel
Hum
%
Delta-T
°C
Wind Press
QNH
hPa
Press
MSL
hPa
Rain
since 9 am
mm
Dir
 
Spd
km/h
Gust
km/h
Spd
kts
Gust
kts
20/11:30pm 7.1 2.5 5.4 89 0.8 SSE 19 22 10 12 1025.2 - 0.0
20/11:00pm 7.8 3.0 5.8 87 0.9 S 20 24 11 13 1025.1 1025.5 0.0
20/10:30pm 8.1 4.0 6.4 89 0.8 SSE 17 20 9 11 1025.3 - 0.0
20/10:00pm 8.4 4.7 6.5 88 0.9 SSE 15 20 8 11 1025.3 1025.7 0.0
20/09:30pm 8.1 4.2 7.3 95 0.4 SSE 17 19 9 10 1025.3 - 0.0
20/09:00pm 4.1 0.9 3.1 93 0.4 SSE 9 13 5 7 1025.2 1025.6 0.0
20/08:30pm 5.4 4.1 4.2 92 0.5 CALM 0 2 0 1 1025.4 - 0.0
20/08:00pm 6.0 2.7 4.6 91 0.6 SSE 11 13 6 7 1025.3 1025.7 0.0

Other Formats:

Comma delimited format used in spreadsheet applications
http://www.bom.gov.au/fwo/IDN60801/IDN60801.95719.axf

JavaScript Object Notation format (JSON) in row-major order
http://www.bom.gov.au/fwo/IDN60801/IDN60801.95719.json